Photometre #741[NE_1.6] Arcachon AOT

File : 20220924_741.hum

24/09/2022,06:44:09,TEMP=17.5,BA=5.40,STAT.A=1.5,ExtBa=12.77
24/09/2022,06:47:46,TEMP=17.8,BA=5.40,STAT.A=1.5,ExtBa=12.64
24/09/2022,06:52:00,TEMP=17.8,BA=5.32,STAT.A=1.5,ExtBa=12.61
24/09/2022,06:57:03,TEMP=17.8,BA=5.32,STAT.A=1.5,ExtBa=12.60
24/09/2022,07:03:08,TEMP=17.8,BA=5.32,STAT.A=1.5,ExtBa=12.61
24/09/2022,07:10:38,TEMP=17.7,BA=5.36,STAT.A=1.5,ExtBa=12.62
24/09/2022,07:20:08,TEMP=17.6,BA=5.24,STAT.B=1.5,ExtBa=12.64
24/09/2022,07:24:41,TEMP=17.7,BA=5.24,STAT.A=1.5,ExtBa=12.61
24/09/2022,07:29:47,TEMP=17.8,BA=5.24,STAT.A=1.5,ExtBa=12.57
24/09/2022,07:35:32,TEMP=17.7,BA=5.20,STAT.A=1.5,ExtBa=12.61
24/09/2022,07:42:06,TEMP=17.7,BA=5.40,STAT.A=1.5,ExtBa=12.62
24/09/2022,07:49:38,TEMP=17.8,BA=5.40,STAT.C=1.5,ExtBa=12.63
24/09/2022,08:03:50,TEMP=19.4,BA=5.36,STAT.A=1.5,ExtBa=12.64
24/09/2022,08:08:48,TEMP=19.6,BA=5.36,STAT.A=1.5,ExtBa=12.93
24/09/2022,08:21:19,TEMP=19.9,BA=5.56,STAT.A=1.5,ExtBa=13.32
24/09/2022,08:36:48,TEMP=19.8,BA=5.60,STAT.A=1.5,ExtBa=13.34
24/09/2022,08:56:37,TEMP=19.7,BA=5.60,STAT.B=1.5,ExtBa=13.53
24/09/2022,09:05:45,TEMP=20.6,BA=5.40,STAT.F,ExtBa=12.91
24/09/2022,09:20:22,TEMP=21.1,BA=5.40,STAT.D=1.5,ExtBa=12.70
24/09/2022,09:27:22,TEMP=20.6,BA=5.40,STAT.D=1.5,ExtBa=12.98
24/09/2022,09:42:22,TEMP=21.5,BA=5.60,STAT.D=2.0,ExtBa=13.50
24/09/2022,09:57:24,TEMP=21.7,BA=5.60,STAT.F,ExtBa=13.51
24/09/2022,10:15:17,TEMP=22.4,BA=5.40,STAT.D=2.0,ExtBa=12.98
24/09/2022,10:27:22,TEMP=21.8,BA=5.60,STAT.D=2.0,ExtBa=13.64
24/09/2022,10:42:22,TEMP=21.9,BA=5.60,STAT.D=2.0,ExtBa=13.52
24/09/2022,10:57:24,TEMP=22.5,BA=5.60,STAT.F,ExtBa=13.44
24/09/2022,11:12:23,TEMP=23.1,BA=5.40,STAT.D=2.0,ExtBa=13.12
24/09/2022,11:27:22,TEMP=23.2,BA=5.56,STAT.D=2.0,ExtBa=13.38
24/09/2022,11:42:22,TEMP=23.3,BA=5.60,STAT.D=2.0,ExtBa=13.48
24/09/2022,11:57:24,TEMP=22.5,BA=5.56,STAT.F,ExtBa=13.51
24/09/2022,12:13:31,TEMP=22.5,BA=5.36,STAT.D=2.0,ExtBa=13.10
24/09/2022,12:27:23,TEMP=21.4,BA=5.52,STAT.D=2.0,ExtBa=13.17
24/09/2022,12:42:23,TEMP=21.0,BA=5.56,STAT.D=2.0,ExtBa=13.24
24/09/2022,12:57:24,TEMP=21.0,BA=5.60,STAT.F,ExtBa=13.31
24/09/2022,13:12:23,TEMP=21.8,BA=5.36,STAT.D=1.5,ExtBa=12.78
24/09/2022,13:27:22,TEMP=20.9,BA=5.60,STAT.D=1.5,ExtBa=12.97
24/09/2022,13:42:22,TEMP=20.3,BA=5.60,STAT.D=1.5,ExtBa=12.92
24/09/2022,13:57:24,TEMP=19.3,BA=5.60,STAT.F,ExtBa=12.94
24/09/2022,14:12:22,TEMP=18.6,BA=5.64,STAT.D=1.5,ExtBa=12.93
24/09/2022,14:27:22,TEMP=16.9,BA=5.60,STAT.D=1.5,ExtBa=12.87
24/09/2022,14:42:22,TEMP=16.8,BA=5.52,STAT.D=1.5,ExtBa=12.85
24/09/2022,14:57:23,TEMP=17.5,BA=5.56,STAT.F,ExtBa=12.82
24/09/2022,14:59:17,TEMP=18.0,BA=5.56,STAT.B=1.5,ExtBa=12.76
24/09/2022,15:17:58,TEMP=19.3,BA=5.64,STAT.A=1.5,ExtBa=13.07
24/09/2022,15:33:27,TEMP=19.5,BA=5.64,STAT.A=1.5,ExtBa=13.11
24/09/2022,15:45:58,TEMP=19.5,BA=5.64,STAT.A=1.5,ExtBa=12.97
24/09/2022,15:56:21,TEMP=19.3,BA=5.64,STAT.A=1.5,ExtBa=12.93
24/09/2022,16:05:08,TEMP=19.0,BA=5.64,STAT.C=1.5,ExtBa=12.86
24/09/2022,16:12:40,TEMP=18.9,BA=5.64,STAT.A=1.5,ExtBa=12.82
24/09/2022,16:19:14,TEMP=18.7,BA=5.64,STAT.A=1.5,ExtBa=12.77
24/09/2022,16:24:59,TEMP=18.7,BA=5.36,STAT.A=1.5,ExtBa=12.76
24/09/2022,16:30:05,TEMP=18.6,BA=5.36,STAT.A=1.5,ExtBa=12.76
24/09/2022,16:34:37,TEMP=18.7,BA=5.36,STAT.B=1.5,ExtBa=12.74
24/09/2022,16:44:07,TEMP=18.5,BA=5.48,STAT.A=1.5,ExtBa=12.76
24/09/2022,16:51:37,TEMP=18.5,BA=5.44,STAT.A=1.5,ExtBa=12.75
24/09/2022,16:57:42,TEMP=18.5,BA=5.44,STAT.A=1.5,ExtBa=12.74
24/09/2022,17:05:46,TEMP=18.4,BA=5.40,STAT.A=1.5,ExtBa=12.74
24/09/2022,17:07:39,TEMP=18.8,BA=5.40,STAT.A=1.5,ExtBa=12.69
24/09/2022,17:10:35,TEMP=18.7,BA=5.44,STAT.A=1.5,ExtBa=12.69